createdAt,value
2019-04-11T00:02:14.405Z,36.70
2019-04-11T00:04:48.449Z,36.80
2019-04-11T00:07:20.891Z,36.90
2019-04-11T00:09:54.578Z,36.90
2019-04-11T00:12:27.426Z,37.10
2019-04-11T00:15:00.210Z,37.10
2019-04-11T00:17:32.569Z,37.20
2019-04-11T00:20:05.036Z,38.00
2019-04-11T00:22:37.457Z,37.30
2019-04-11T00:25:09.892Z,37.20
2019-04-11T00:27:43.436Z,37.10
2019-04-11T00:30:16.384Z,37.70
2019-04-11T00:32:49.775Z,37.20
2019-04-11T00:35:21.897Z,37.30
2019-04-11T00:37:54.421Z,37.30
2019-04-11T00:40:27.087Z,37.30
2019-04-11T00:43:00.989Z,37.40
2019-04-11T00:45:33.951Z,37.30
2019-04-11T00:48:06.889Z,37.30
2019-04-11T00:50:39.362Z,37.30
2019-04-11T00:53:12.010Z,37.50
2019-04-11T00:55:44.582Z,37.30
2019-04-11T00:58:17.354Z,37.30
2019-04-11T01:00:51.104Z,36.90
2019-04-11T01:03:24.278Z,37.40
2019-04-11T01:05:56.876Z,37.20
2019-04-11T01:08:32.561Z,37.30
2019-04-11T01:11:05.783Z,37.30
2019-04-11T01:13:44.347Z,37.00
2019-04-11T01:16:40.994Z,37.20
2019-04-11T01:19:14.254Z,38.00
2019-04-11T01:21:46.921Z,37.30
2019-04-11T01:24:19.738Z,37.30
2019-04-11T01:26:52.072Z,37.40
2019-04-11T01:29:25.233Z,37.40
2019-04-11T01:32:02.311Z,37.30
2019-04-11T01:34:35.084Z,37.30
2019-04-11T01:37:07.765Z,37.30
2019-04-11T01:40:09.705Z,37.40
2019-04-11T01:42:42.093Z,37.40
2019-04-11T01:45:15.073Z,37.50
2019-04-11T01:47:57.391Z,37.50
2019-04-11T01:50:32.909Z,37.30
2019-04-11T01:53:05.000Z,37.30
2019-04-11T01:55:38.806Z,37.60
2019-04-11T01:58:11.278Z,37.60
2019-04-11T02:00:55.098Z,37.50
2019-04-11T02:03:41.540Z,38.20
2019-04-11T02:06:13.943Z,37.40
2019-04-11T02:08:47.172Z,37.30
2019-04-11T02:11:19.841Z,37.30
2019-04-11T02:13:52.249Z,37.30
2019-04-11T02:16:25.221Z,37.30
2019-04-11T02:18:58.023Z,37.30
2019-04-11T02:21:30.588Z,37.30
2019-04-11T02:24:37.324Z,37.20
2019-04-11T02:27:28.808Z,36.90
2019-04-11T02:30:01.404Z,37.90
2019-04-11T02:32:36.492Z,37.30
2019-04-11T02:35:08.934Z,37.30
2019-04-11T02:37:42.267Z,36.70
2019-04-11T02:40:17.488Z,37.10
2019-04-11T02:42:51.974Z,37.20
2019-04-11T02:45:36.409Z,37.10
2019-04-11T02:47:59.447Z,37.10
2019-04-11T02:50:37.171Z,37.20
2019-04-11T02:53:10.380Z,36.70
2019-04-11T02:55:43.877Z,36.70
2019-04-11T02:58:18.545Z,37.00
2019-04-11T03:00:53.047Z,37.30
2019-04-11T03:03:25.295Z,37.20
2019-04-11T03:05:59.656Z,37.20
2019-04-11T03:08:34.857Z,37.00
2019-04-11T03:11:09.471Z,36.80
2019-04-11T03:13:42.239Z,37.20
2019-04-11T03:16:28.143Z,37.20
2019-04-11T03:21:24.452Z,37.30
2019-04-11T03:23:58.604Z,37.40
2019-04-11T03:26:31.317Z,37.00
2019-04-11T03:29:04.319Z,37.20
2019-04-11T03:32:17.509Z,37.60
2019-04-11T03:35:06.299Z,37.50
2019-04-11T03:37:18.969Z,38.20
2019-04-11T03:39:41.308Z,37.60
2019-04-11T03:42:15.894Z,37.70
2019-04-11T03:44:37.207Z,37.50
2019-04-11T03:47:16.687Z,37.00
2019-04-11T03:49:44.989Z,37.10
2019-04-11T03:52:12.197Z,37.40
2019-04-11T03:54:45.561Z,37.00
2019-04-11T03:57:17.407Z,37.90
2019-04-11T03:59:50.050Z,37.90
2019-04-11T04:02:22.553Z,37.60
2019-04-11T04:04:57.062Z,37.70
2019-04-11T04:07:31.786Z,37.60
2019-04-11T04:10:05.016Z,37.70
2019-04-11T04:12:37.808Z,37.90
2019-04-11T04:15:45.062Z,38.20
2019-04-11T04:18:29.701Z,38.40
2019-04-11T04:21:10.951Z,37.80
2019-04-11T04:23:46.897Z,37.90
2019-04-11T04:26:20.018Z,37.90
2019-04-11T04:28:53.599Z,37.90
2019-04-11T04:31:26.690Z,38.00
2019-04-11T04:33:59.642Z,37.70
2019-04-11T04:36:33.075Z,37.90
2019-04-11T04:39:08.695Z,37.70
2019-04-11T04:41:51.840Z,37.70
2019-04-11T04:44:16.946Z,37.80
2019-04-11T04:47:00.175Z,37.70
2019-04-11T04:49:24.339Z,37.50
2019-04-11T04:51:56.967Z,37.50
2019-04-11T04:54:30.844Z,38.50
2019-04-11T04:57:05.017Z,38.50
2019-04-11T04:59:40.069Z,38.50
2019-04-11T05:02:12.854Z,38.40
2019-04-11T05:04:47.554Z,37.90
2019-04-11T05:07:20.435Z,38.30
2019-04-11T05:09:54.393Z,38.30
2019-04-11T05:12:26.240Z,38.30
2019-04-11T05:14:59.354Z,38.20
2019-04-11T05:17:32.456Z,38.10
2019-04-11T05:20:05.393Z,38.10
2019-04-11T05:22:38.038Z,37.60
2019-04-11T05:25:10.725Z,37.80
2019-04-11T05:27:42.991Z,37.70
2019-04-11T05:30:15.323Z,37.80
2019-04-11T05:32:49.239Z,37.50
2019-04-11T05:35:22.997Z,37.60
2019-04-11T05:37:57.932Z,37.40
2019-04-11T05:40:32.210Z,37.20
2019-04-11T05:43:05.964Z,37.40
2019-04-11T05:45:40.087Z,37.20
2019-04-11T05:48:23.973Z,37.20
2019-04-11T05:50:56.212Z,37.20
2019-04-11T05:53:32.617Z,37.20
2019-04-11T05:56:04.553Z,37.00
2019-04-11T05:58:37.003Z,37.70
2019-04-11T06:01:24.382Z,37.10
2019-04-11T06:04:00.491Z,37.00
2019-04-11T06:06:40.196Z,37.10
2019-04-11T06:09:17.216Z,37.00
2019-04-11T06:12:03.235Z,37.10
2019-04-11T06:14:43.671Z,37.60
2019-04-11T06:17:16.820Z,37.00
2019-04-11T06:20:08.254Z,37.00
2019-04-11T06:22:45.907Z,37.10
2019-04-11T06:25:46.848Z,37.00
2019-04-11T06:28:24.352Z,36.90
2019-04-11T06:31:14.527Z,36.90
2019-04-11T06:33:53.145Z,36.90
2019-04-11T06:36:55.242Z,37.00
2019-04-11T06:39:47.366Z,37.00
2019-04-11T06:42:27.617Z,36.90
2019-04-11T06:45:35.713Z,36.90
2019-04-11T06:48:16.455Z,36.90
2019-04-11T06:51:06.091Z,36.90
2019-04-11T06:53:42.136Z,36.90
2019-04-11T06:56:21.317Z,37.10
2019-04-11T06:58:57.314Z,37.50
2019-04-11T07:01:31.031Z,37.30
2019-04-11T07:04:23.009Z,37.30
2019-04-11T07:06:56.311Z,37.20
2019-04-11T07:09:53.338Z,37.20
2019-04-11T07:12:53.052Z,37.20
2019-04-11T07:15:29.489Z,37.20
2019-04-11T07:18:20.582Z,37.20
2019-04-11T07:20:58.213Z,38.00
2019-04-11T07:23:49.136Z,36.60
2019-04-11T07:26:43.807Z,37.10
2019-04-11T07:29:34.277Z,37.00
2019-04-11T07:32:15.988Z,37.10
2019-04-11T07:35:30.124Z,36.90
2019-04-11T07:38:05.034Z,36.80
2019-04-11T07:40:56.193Z,36.80
2019-04-11T07:43:35.509Z,36.90
2019-04-11T07:46:30.770Z,36.80
2019-04-11T07:49:10.127Z,36.40
2019-04-11T07:51:52.907Z,37.00
2019-04-11T07:54:26.388Z,36.90
2019-04-11T07:57:10.429Z,36.90
2019-04-11T08:00:06.567Z,36.80
2019-04-11T08:02:57.439Z,37.10
2019-04-11T08:06:07.529Z,36.40
2019-04-11T08:08:52.519Z,36.70
2019-04-11T08:11:52.427Z,36.40
2019-04-11T08:14:44.606Z,36.40
2019-04-11T08:17:32.101Z,36.70
2019-04-11T08:20:13.207Z,36.80
2019-04-11T08:22:52.460Z,37.10
2019-04-11T08:25:53.571Z,37.50
2019-04-11T08:28:24.915Z,36.70
2019-04-11T08:31:19.953Z,36.70
2019-04-11T08:33:55.052Z,36.40
2019-04-11T08:36:47.798Z,36.30
2019-04-11T08:39:24.803Z,36.80
2019-04-11T08:42:25.457Z,36.30
2019-04-11T08:44:58.861Z,36.50
2019-04-11T08:47:45.756Z,36.50
2019-04-11T08:50:14.341Z,36.50
2019-04-11T08:53:11.366Z,36.50
2019-04-11T08:55:55.281Z,36.50
2019-04-11T08:58:31.046Z,36.50
2019-04-11T09:01:05.392Z,36.20
2019-04-11T09:04:07.048Z,36.10
2019-04-11T09:06:37.038Z,36.00
2019-04-11T09:09:36.812Z,35.70
2019-04-11T09:12:12.609Z,35.90
2019-04-11T09:15:04.442Z,36.10
2019-04-11T09:17:56.512Z,35.90
2019-04-11T09:20:40.184Z,36.90
2019-04-11T09:23:21.792Z,36.30
2019-04-11T09:26:32.321Z,36.00
2019-04-11T09:29:08.290Z,36.10
2019-04-11T09:32:07.698Z,36.10
2019-04-11T09:34:50.121Z,36.10
2019-04-11T09:37:34.495Z,36.50
2019-04-11T09:40:28.331Z,36.20
2019-04-11T09:43:22.501Z,36.20
2019-04-11T09:46:08.209Z,36.30
2019-04-11T09:49:23.363Z,36.20
2019-04-11T09:52:10.481Z,36.20
2019-04-11T09:54:56.829Z,36.20
2019-04-11T09:57:36.586Z,36.10
2019-04-11T10:00:28.798Z,36.30
2019-04-11T10:03:23.877Z,35.90
2019-04-11T10:06:40.907Z,36.40
2019-04-11T10:09:15.645Z,36.50
2019-04-11T10:12:06.531Z,36.70
2019-04-11T10:14:45.904Z,36.00
2019-04-11T10:17:36.107Z,36.00
2019-04-11T10:20:11.084Z,36.60
2019-04-11T10:22:56.727Z,36.50
2019-04-11T10:25:45.561Z,36.50
2019-04-11T10:28:36.124Z,36.60
2019-04-11T10:31:12.810Z,36.00
2019-04-11T10:36:55.833Z,36.20
2019-04-11T10:40:01.881Z,36.20
2019-04-11T10:42:44.798Z,36.40
2019-04-11T10:45:34.833Z,36.30
2019-04-11T10:48:09.512Z,36.50
2019-04-11T10:51:00.407Z,36.30
2019-04-11T10:53:33.343Z,35.70
2019-04-11T10:56:24.509Z,36.30
2019-04-11T10:58:59.563Z,36.10
2019-04-11T11:01:55.992Z,35.70
2019-04-11T11:04:48.856Z,35.70
2019-04-11T11:07:28.609Z,36.00
2019-04-11T11:10:07.040Z,35.90
2019-04-11T11:12:57.291Z,35.80
2019-04-11T11:15:32.037Z,35.70
2019-04-11T11:18:43.956Z,35.80
2019-04-11T11:21:09.399Z,35.70
2019-04-11T11:24:00.687Z,36.00
2019-04-11T11:26:41.149Z,36.10
2019-04-11T11:29:40.147Z,36.00
2019-04-11T11:32:37.868Z,36.10
2019-04-11T11:35:30.627Z,35.90
2019-04-11T11:38:24.105Z,36.00
2019-04-11T11:41:16.386Z,36.10
2019-04-11T11:43:52.372Z,36.10
2019-04-11T11:47:03.422Z,36.10
2019-04-11T11:49:58.597Z,36.10
2019-04-11T11:52:53.543Z,35.70
2019-04-11T11:55:29.872Z,36.10
2019-04-11T11:58:25.746Z,36.20
2019-04-11T12:01:03.657Z,36.10
2019-04-11T12:03:50.754Z,36.40
2019-04-11T12:06:24.148Z,35.90
2019-04-11T12:09:30.861Z,36.20
2019-04-11T12:12:08.057Z,36.30
2019-04-11T12:15:01.716Z,36.10
2019-04-11T12:18:01.796Z,36.10
2019-04-11T12:20:44.391Z,36.20
2019-04-11T12:23:46.540Z,36.10
2019-04-11T12:26:06.898Z,36.00
2019-04-11T12:29:12.506Z,36.10
2019-04-11T12:31:48.107Z,35.90
2019-04-11T12:34:43.899Z,36.20
2019-04-11T12:37:22.534Z,36.10
2019-04-11T12:40:11.418Z,35.80
2019-04-11T12:42:43.293Z,35.60
2019-04-11T12:45:33.320Z,36.00
2019-04-11T12:48:05.293Z,35.90
2019-04-11T12:50:59.763Z,36.00
2019-04-11T12:53:30.498Z,36.00
2019-04-11T12:56:27.014Z,36.00
2019-04-11T12:59:04.764Z,36.00
2019-04-11T13:02:01.071Z,36.00
2019-04-11T13:04:37.781Z,36.00
2019-04-11T13:07:28.263Z,36.00
2019-04-11T13:10:03.364Z,36.00
2019-04-11T13:12:59.313Z,36.10
2019-04-11T13:15:44.759Z,36.00
2019-04-11T13:18:34.263Z,35.90
2019-04-11T13:21:09.293Z,36.00
2019-04-11T13:24:11.887Z,35.90
2019-04-11T13:27:14.458Z,35.70
2019-04-11T13:30:04.767Z,35.70
2019-04-11T13:32:50.675Z,35.90
2019-04-11T13:35:46.591Z,35.90
2019-04-11T13:38:20.745Z,35.90
2019-04-11T13:41:20.690Z,35.60
2019-04-11T13:44:16.249Z,36.10
2019-04-11T13:47:06.544Z,35.90
2019-04-11T13:49:44.650Z,35.90
2019-04-11T13:52:35.301Z,36.00
2019-04-11T13:55:29.396Z,35.50
2019-04-11T13:58:18.705Z,36.00
2019-04-11T14:00:53.492Z,35.90
2019-04-11T14:03:49.562Z,35.40
2019-04-11T14:06:39.370Z,35.70
2019-04-11T14:09:38.746Z,35.40
2019-04-11T14:12:13.717Z,35.60
2019-04-11T14:14:56.629Z,35.20
2019-04-11T14:17:47.465Z,35.20
2019-04-11T14:20:29.261Z,34.10
2019-04-11T14:23:15.167Z,28.10
2019-04-11T14:26:12.466Z,24.20
2019-04-11T14:29:05.734Z,21.50
2019-04-11T14:31:55.281Z,19.60
2019-04-11T14:34:44.634Z,18.40
2019-04-11T14:37:38.367Z,17.60
2019-04-11T14:40:16.320Z,16.70
2019-04-11T14:43:06.694Z,16.80
2019-04-11T14:46:00.257Z,16.50
2019-04-11T14:48:46.256Z,16.20
2019-04-11T14:51:39.487Z,16.20
2019-04-11T14:54:18.550Z,16.20
2019-04-11T14:56:58.112Z,16.30
2019-04-11T14:59:46.785Z,16.20
2019-04-11T15:02:39.099Z,16.90
2019-04-11T15:05:17.734Z,17.30
2019-04-11T15:07:50.421Z,17.90
2019-04-11T15:10:49.879Z,18.40
2019-04-11T15:13:25.309Z,18.90
2019-04-11T15:16:15.322Z,19.60
2019-04-11T15:18:54.381Z,20.10
2019-04-11T15:21:53.670Z,20.80
2019-04-11T15:24:24.739Z,21.40
2019-04-11T15:27:14.524Z,22.00
2019-04-11T15:29:46.806Z,23.00
2019-04-11T15:32:56.365Z,23.80
2019-04-11T15:35:28.056Z,24.40
2019-04-11T15:38:18.406Z,25.20
2019-04-11T15:40:53.788Z,25.70
2019-04-11T15:43:44.304Z,26.30
2019-04-11T15:46:24.390Z,26.80
2019-04-11T15:49:21.259Z,27.10
2019-04-11T15:52:01.450Z,27.40
2019-04-11T15:54:54.477Z,27.70
2019-04-11T15:57:34.877Z,28.00
2019-04-11T16:00:29.688Z,28.30
2019-04-11T16:03:07.093Z,28.40
2019-04-11T16:05:56.302Z,28.30
2019-04-11T16:08:32.884Z,29.00
2019-04-11T16:11:20.311Z,29.50
2019-04-11T16:13:59.048Z,29.60
2019-04-11T16:16:49.503Z,29.80
2019-04-11T16:19:43.301Z,30.00
2019-04-11T16:22:37.095Z,30.40
2019-04-11T16:25:14.455Z,30.10
2019-04-11T16:28:08.143Z,30.80
2019-04-11T16:30:45.617Z,31.20
2019-04-11T16:33:24.834Z,30.70
2019-04-11T16:36:15.257Z,30.40
2019-04-11T16:39:00.750Z,30.90
2019-04-11T16:41:49.338Z,31.60
2019-04-11T16:44:26.749Z,32.00
2019-04-11T16:47:28.933Z,31.90
2019-04-11T16:50:00.674Z,31.90
2019-04-11T16:52:32.693Z,32.20
2019-04-11T16:55:04.333Z,32.40
2019-04-11T16:57:36.139Z,32.50
2019-04-11T17:00:10.410Z,32.60
2019-04-11T17:02:42.304Z,32.80
2019-04-11T17:05:13.906Z,33.10
2019-04-11T17:08:07.838Z,32.90
2019-04-11T17:10:57.652Z,33.30
2019-04-11T17:13:32.037Z,33.20
2019-04-11T17:16:03.335Z,33.30
2019-04-11T17:18:35.111Z,33.40
2019-04-11T17:21:08.572Z,33.70
2019-04-11T17:23:40.769Z,33.80
2019-04-11T17:26:12.366Z,34.00
2019-04-11T17:28:44.319Z,33.50
2019-04-11T17:31:16.052Z,34.30
2019-04-11T17:33:48.473Z,33.70
2019-04-11T17:36:20.303Z,33.80
2019-04-11T17:38:55.336Z,33.80
2019-04-11T17:41:27.833Z,33.80
2019-04-11T17:44:04.475Z,33.90
2019-04-11T17:46:49.126Z,34.00
2019-04-11T17:49:21.322Z,33.80
2019-04-11T17:52:07.212Z,34.00
2019-04-11T17:54:40.332Z,33.90
2019-04-11T17:57:12.913Z,33.40
2019-04-11T17:59:45.320Z,31.80
2019-04-11T18:02:17.998Z,32.30
2019-04-11T18:05:01.730Z,33.20
2019-04-11T18:07:33.331Z,33.80
2019-04-11T18:10:06.073Z,34.20
2019-04-11T18:12:42.481Z,35.30
2019-04-11T18:15:15.063Z,34.50
2019-04-11T18:17:48.557Z,34.50
2019-04-11T18:20:22.886Z,34.70
2019-04-11T18:22:55.521Z,35.60
2019-04-11T18:25:31.312Z,36.40
2019-04-11T18:28:04.049Z,35.10
2019-04-11T18:30:37.093Z,35.90
2019-04-11T18:33:10.314Z,36.40
2019-04-11T18:35:43.337Z,37.00
2019-04-11T18:38:17.065Z,37.50
2019-04-11T18:40:53.748Z,37.30
2019-04-11T18:43:31.775Z,37.50
2019-04-11T18:46:09.355Z,38.60
2019-04-11T18:48:43.337Z,38.40
2019-04-11T18:51:31.594Z,38.40
2019-04-11T18:56:49.476Z,38.40
2019-04-11T18:59:23.328Z,38.10
2019-04-11T19:02:03.272Z,38.30
2019-04-11T19:04:42.209Z,38.00
2019-04-11T19:07:27.602Z,38.40
2019-04-11T19:10:01.163Z,38.10
2019-04-11T19:12:34.748Z,37.50
2019-04-11T19:15:08.308Z,37.00
2019-04-11T19:17:43.798Z,38.00
2019-04-11T19:20:18.884Z,38.00
2019-04-11T19:22:50.887Z,38.00
2019-04-11T19:25:23.289Z,37.60
2019-04-11T19:27:57.284Z,37.90
2019-04-11T19:30:30.097Z,38.70
2019-04-11T19:33:02.446Z,38.90
2019-04-11T19:35:35.102Z,38.40
2019-04-11T19:38:12.009Z,38.60
2019-04-11T19:40:44.160Z,38.10
2019-04-11T19:43:19.140Z,37.80
2019-04-11T19:45:54.632Z,37.50
2019-04-11T19:48:26.302Z,37.70
2019-04-11T19:50:59.565Z,38.70
2019-04-11T19:53:33.038Z,38.20
2019-04-11T19:56:17.413Z,38.20
2019-04-11T19:58:53.660Z,38.10
2019-04-11T20:01:24.799Z,38.40
2019-04-11T20:03:55.961Z,38.40
2019-04-11T20:06:28.328Z,38.30
2019-04-11T20:09:00.837Z,37.70
2019-04-11T20:11:32.947Z,38.30
2019-04-11T20:14:07.723Z,38.90
2019-04-11T20:16:48.283Z,38.50
2019-04-11T20:19:30.924Z,39.30
2019-04-11T20:22:08.209Z,38.00
2019-04-11T20:24:40.169Z,38.40
2019-04-11T20:27:14.113Z,37.70
2019-04-11T20:29:51.089Z,38.50
2019-04-11T20:32:20.911Z,39.30
2019-04-11T20:34:57.297Z,39.00
2019-04-11T20:37:39.428Z,38.90
2019-04-11T20:40:12.434Z,39.10
2019-04-11T20:42:46.576Z,38.70
2019-04-11T20:45:19.473Z,38.80
2019-04-11T20:48:04.211Z,38.70
2019-04-11T20:50:38.557Z,38.50
2019-04-11T20:53:14.585Z,38.90
2019-04-11T21:00:55.722Z,37.90
2019-04-11T21:08:36.540Z,38.60
2019-04-11T21:13:39.897Z,39.20
2019-04-11T21:16:12.862Z,39.20
2019-04-11T21:18:44.883Z,39.50
2019-04-11T21:21:17.387Z,39.10
2019-04-11T21:23:49.923Z,39.40
2019-04-11T21:26:22.108Z,40.30
2019-04-11T21:28:58.745Z,40.10
2019-04-11T21:31:31.094Z,40.10
2019-04-11T21:34:03.060Z,39.10
2019-04-11T21:36:35.343Z,40.10
2019-04-11T21:39:09.102Z,40.60
2019-04-11T21:41:41.394Z,40.20
2019-04-11T21:44:13.893Z,40.30
2019-04-11T21:46:49.192Z,40.50
2019-04-11T21:49:20.811Z,40.20
2019-04-11T21:51:52.866Z,40.10
2019-04-11T21:54:25.936Z,41.10
2019-04-11T21:56:58.027Z,40.50
2019-04-11T21:59:30.076Z,40.60
2019-04-11T22:02:02.905Z,40.20
2019-04-11T22:04:53.030Z,40.20
2019-04-11T22:07:25.418Z,39.70
2019-04-11T22:09:57.863Z,40.10
2019-04-11T22:12:30.856Z,39.60
2019-04-11T22:15:03.339Z,40.60
2019-04-11T22:17:35.551Z,39.90
2019-04-11T22:20:08.691Z,39.90
2019-04-11T22:22:41.005Z,40.10
2019-04-11T22:25:13.333Z,39.90
2019-04-11T22:27:45.950Z,40.40
2019-04-11T22:30:20.298Z,40.30
2019-04-11T22:33:04.338Z,40.30
2019-04-11T22:35:37.340Z,40.30
2019-04-11T22:38:09.861Z,40.10
2019-04-11T22:40:42.399Z,40.80
2019-04-11T22:43:24.098Z,40.60
2019-04-11T22:45:48.846Z,40.10
2019-04-11T22:48:21.059Z,39.80
2019-04-11T22:50:53.440Z,40.50
2019-04-11T22:53:25.936Z,40.30
2019-04-11T22:55:58.389Z,40.30
2019-04-11T22:58:30.989Z,40.30
2019-04-11T23:01:03.343Z,40.20
2019-04-11T23:03:49.327Z,40.20
2019-04-11T23:06:21.589Z,40.30
2019-04-11T23:08:53.874Z,40.90
2019-04-11T23:11:26.101Z,40.50
2019-04-11T23:13:59.075Z,40.60
2019-04-11T23:16:31.871Z,40.50
2019-04-11T23:19:03.874Z,40.80
2019-04-11T23:21:36.033Z,40.60
2019-04-11T23:24:12.117Z,40.60
2019-04-11T23:26:42.486Z,40.40
2019-04-11T23:29:16.170Z,40.80
2019-04-11T23:31:50.851Z,40.80
2019-04-11T23:34:24.307Z,40.80
2019-04-11T23:36:57.318Z,40.20
2019-04-11T23:39:29.979Z,41.00
2019-04-11T23:42:02.132Z,41.30
2019-04-11T23:44:34.897Z,41.00
2019-04-11T23:47:07.035Z,40.30
2019-04-11T23:49:39.340Z,40.30
2019-04-11T23:52:11.809Z,40.80
2019-04-11T23:54:44.024Z,41.00
2019-04-11T23:57:16.332Z,39.70
2019-04-11T23:59:48.927Z,40.70
